sensor_id;sensor_type;location;lat;lon;timestamp;P1;durP1;ratioP1;P2;durP2;ratioP2
12814;SDS011;6472;52.328;13.070;2022-11-20T00:02:17;6.83;;;4.17;;
12814;SDS011;6472;52.328;13.070;2022-11-20T00:04:46;5.97;;;4.33;;
12814;SDS011;6472;52.328;13.070;2022-11-20T00:07:23;7.30;;;4.43;;
12814;SDS011;6472;52.328;13.070;2022-11-20T00:10:05;5.60;;;3.50;;
12814;SDS011;6472;52.328;13.070;2022-11-20T00:12:36;10.03;;;4.17;;
12814;SDS011;6472;52.328;13.070;2022-11-20T00:15:13;10.17;;;5.40;;
12814;SDS011;6472;52.328;13.070;2022-11-20T00:21:15;10.87;;;4.30;;
12814;SDS011;6472;52.328;13.070;2022-11-20T00:23:55;9.00;;;4.20;;
12814;SDS011;6472;52.328;13.070;2022-11-20T00:26:29;6.30;;;3.40;;
12814;SDS011;6472;52.328;13.070;2022-11-20T00:29:09;7.93;;;4.03;;
12814;SDS011;6472;52.328;13.070;2022-11-20T00:49:39;6.93;;;3.90;;
12814;SDS011;6472;52.328;13.070;2022-11-20T00:52:07;9.70;;;4.60;;
12814;SDS011;6472;52.328;13.070;2022-11-20T00:54:36;6.70;;;3.43;;
12814;SDS011;6472;52.328;13.070;2022-11-20T00:57:04;11.03;;;5.23;;
12814;SDS011;6472;52.328;13.070;2022-11-20T00:59:32;6.07;;;4.30;;
12814;SDS011;6472;52.328;13.070;2022-11-20T01:02:00;5.00;;;3.07;;
12814;SDS011;6472;52.328;13.070;2022-11-20T01:04:28;5.70;;;3.40;;
12814;SDS011;6472;52.328;13.070;2022-11-20T01:06:57;5.23;;;3.43;;
12814;SDS011;6472;52.328;13.070;2022-11-20T01:09:26;6.77;;;3.80;;
12814;SDS011;6472;52.328;13.070;2022-11-20T01:11:54;7.43;;;3.70;;
12814;SDS011;6472;52.328;13.070;2022-11-20T01:14:22;5.47;;;3.50;;
12814;SDS011;6472;52.328;13.070;2022-11-20T01:16:50;10.13;;;4.10;;
12814;SDS011;6472;52.328;13.070;2022-11-20T01:19:20;7.13;;;4.30;;
12814;SDS011;6472;52.328;13.070;2022-11-20T01:21:51;8.87;;;4.30;;
12814;SDS011;6472;52.328;13.070;2022-11-20T01:24:22;5.33;;;3.07;;
12814;SDS011;6472;52.328;13.070;2022-11-20T01:26:50;7.37;;;3.60;;
12814;SDS011;6472;52.328;13.070;2022-11-20T01:29:19;6.43;;;4.37;;
12814;SDS011;6472;52.328;13.070;2022-11-20T01:31:49;5.87;;;3.00;;
12814;SDS011;6472;52.328;13.070;2022-11-20T01:34:19;6.33;;;3.77;;
12814;SDS011;6472;52.328;13.070;2022-11-20T01:36:48;7.07;;;3.87;;
12814;SDS011;6472;52.328;13.070;2022-11-20T01:39:18;7.87;;;3.70;;
12814;SDS011;6472;52.328;13.070;2022-11-20T01:41:50;10.00;;;3.77;;
12814;SDS011;6472;52.328;13.070;2022-11-20T01:44:43;5.23;;;3.63;;
12814;SDS011;6472;52.328;13.070;2022-11-20T01:47:17;7.00;;;4.57;;
12814;SDS011;6472;52.328;13.070;2022-11-20T01:49:50;11.57;;;5.10;;
12814;SDS011;6472;52.328;13.070;2022-11-20T01:52:24;8.60;;;4.73;;
12814;SDS011;6472;52.328;13.070;2022-11-20T01:54:58;9.50;;;3.67;;
12814;SDS011;6472;52.328;13.070;2022-11-20T01:57:32;5.10;;;2.77;;
12814;SDS011;6472;52.328;13.070;2022-11-20T02:00:03;4.60;;;2.87;;
12814;SDS011;6472;52.328;13.070;2022-11-20T02:02:32;6.80;;;4.27;;
12814;SDS011;6472;52.328;13.070;2022-11-20T02:05:03;6.37;;;4.20;;
12814;SDS011;6472;52.328;13.070;2022-11-20T02:07:36;4.67;;;3.47;;
12814;SDS011;6472;52.328;13.070;2022-11-20T02:10:05;8.30;;;4.17;;
12814;SDS011;6472;52.328;13.070;2022-11-20T02:12:35;8.47;;;4.23;;
12814;SDS011;6472;52.328;13.070;2022-11-20T02:15:20;6.80;;;4.03;;
12814;SDS011;6472;52.328;13.070;2022-11-20T02:17:55;3.47;;;3.17;;
12814;SDS011;6472;52.328;13.070;2022-11-20T02:20:23;5.17;;;3.03;;
12814;SDS011;6472;52.328;13.070;2022-11-20T02:22:53;6.80;;;4.27;;
12814;SDS011;6472;52.328;13.070;2022-11-20T02:25:26;4.93;;;3.20;;
12814;SDS011;6472;52.328;13.070;2022-11-20T02:27:56;5.30;;;3.77;;
12814;SDS011;6472;52.328;13.070;2022-11-20T02:30:24;7.77;;;3.43;;
12814;SDS011;6472;52.328;13.070;2022-11-20T02:32:53;7.33;;;3.43;;
12814;SDS011;6472;52.328;13.070;2022-11-20T02:35:39;5.57;;;3.70;;
12814;SDS011;6472;52.328;13.070;2022-11-20T02:38:09;4.00;;;3.00;;
12814;SDS011;6472;52.328;13.070;2022-11-20T02:40:38;5.17;;;3.37;;
12814;SDS011;6472;52.328;13.070;2022-11-20T02:43:07;6.13;;;4.07;;
12814;SDS011;6472;52.328;13.070;2022-11-20T02:45:35;4.97;;;3.90;;
12814;SDS011;6472;52.328;13.070;2022-11-20T02:48:05;7.97;;;4.37;;
12814;SDS011;6472;52.328;13.070;2022-11-20T02:50:35;8.37;;;4.23;;
12814;SDS011;6472;52.328;13.070;2022-11-20T02:53:05;8.23;;;2.90;;
12814;SDS011;6472;52.328;13.070;2022-11-20T02:55:33;8.60;;;3.67;;
12814;SDS011;6472;52.328;13.070;2022-11-20T02:58:03;6.73;;;3.87;;
12814;SDS011;6472;52.328;13.070;2022-11-20T03:00:31;4.50;;;2.60;;
12814;SDS011;6472;52.328;13.070;2022-11-20T03:02:59;8.57;;;4.53;;
12814;SDS011;6472;52.328;13.070;2022-11-20T03:05:28;5.27;;;3.63;;
12814;SDS011;6472;52.328;13.070;2022-11-20T03:07:56;7.30;;;4.17;;
12814;SDS011;6472;52.328;13.070;2022-11-20T03:10:24;6.53;;;3.03;;
12814;SDS011;6472;52.328;13.070;2022-11-20T03:12:52;5.73;;;3.20;;
12814;SDS011;6472;52.328;13.070;2022-11-20T03:15:23;8.03;;;4.63;;
12814;SDS011;6472;52.328;13.070;2022-11-20T03:17:53;19.13;;;4.13;;
12814;SDS011;6472;52.328;13.070;2022-11-20T03:20:21;4.77;;;3.33;;
12814;SDS011;6472;52.328;13.070;2022-11-20T03:22:50;8.33;;;4.50;;
12814;SDS011;6472;52.328;13.070;2022-11-20T03:25:18;7.20;;;4.17;;
12814;SDS011;6472;52.328;13.070;2022-11-20T03:27:46;3.40;;;3.07;;
12814;SDS011;6472;52.328;13.070;2022-11-20T03:30:14;6.80;;;4.17;;
12814;SDS011;6472;52.328;13.070;2022-11-20T03:32:43;7.27;;;3.83;;
12814;SDS011;6472;52.328;13.070;2022-11-20T03:35:11;10.40;;;5.07;;
12814;SDS011;6472;52.328;13.070;2022-11-20T03:37:39;4.37;;;3.10;;
12814;SDS011;6472;52.328;13.070;2022-11-20T03:42:35;9.80;;;4.40;;
12814;SDS011;6472;52.328;13.070;2022-11-20T03:45:15;4.63;;;2.27;;
12814;SDS011;6472;52.328;13.070;2022-11-20T03:47:46;9.37;;;4.63;;
12814;SDS011;6472;52.328;13.070;2022-11-20T03:50:16;9.50;;;4.17;;
12814;SDS011;6472;52.328;13.070;2022-11-20T03:52:44;7.90;;;4.33;;
12814;SDS011;6472;52.328;13.070;2022-11-20T03:55:13;5.07;;;3.70;;
12814;SDS011;6472;52.328;13.070;2022-11-20T03:57:41;7.77;;;4.90;;
12814;SDS011;6472;52.328;13.070;2022-11-20T04:00:09;8.67;;;4.33;;
12814;SDS011;6472;52.328;13.070;2022-11-20T04:02:38;7.57;;;4.30;;
12814;SDS011;6472;52.328;13.070;2022-11-20T04:05:08;7.97;;;4.67;;
12814;SDS011;6472;52.328;13.070;2022-11-20T04:07:36;7.07;;;4.27;;
12814;SDS011;6472;52.328;13.070;2022-11-20T04:10:04;7.60;;;4.20;;
12814;SDS011;6472;52.328;13.070;2022-11-20T04:12:33;7.90;;;4.13;;
12814;SDS011;6472;52.328;13.070;2022-11-20T04:15:01;10.57;;;4.70;;
12814;SDS011;6472;52.328;13.070;2022-11-20T04:17:29;6.57;;;4.93;;
12814;SDS011;6472;52.328;13.070;2022-11-20T04:19:57;8.47;;;3.60;;
12814;SDS011;6472;52.328;13.070;2022-11-20T04:22:26;9.50;;;5.50;;
12814;SDS011;6472;52.328;13.070;2022-11-20T04:24:55;8.77;;;4.20;;
12814;SDS011;6472;52.328;13.070;2022-11-20T04:27:23;12.20;;;5.87;;
12814;SDS011;6472;52.328;13.070;2022-11-20T04:29:51;9.77;;;4.67;;
12814;SDS011;6472;52.328;13.070;2022-11-20T04:32:19;11.97;;;5.63;;
12814;SDS011;6472;52.328;13.070;2022-11-20T04:34:47;7.80;;;4.47;;
12814;SDS011;6472;52.328;13.070;2022-11-20T04:37:15;6.77;;;3.73;;
12814;SDS011;6472;52.328;13.070;2022-11-20T04:39:46;6.70;;;3.33;;
12814;SDS011;6472;52.328;13.070;2022-11-20T04:42:15;5.27;;;4.47;;
12814;SDS011;6472;52.328;13.070;2022-11-20T04:44:58;7.97;;;4.70;;
12814;SDS011;6472;52.328;13.070;2022-11-20T04:47:26;4.57;;;4.03;;
12814;SDS011;6472;52.328;13.070;2022-11-20T04:49:54;11.30;;;5.17;;
12814;SDS011;6472;52.328;13.070;2022-11-20T04:52:22;6.83;;;3.83;;
12814;SDS011;6472;52.328;13.070;2022-11-20T04:54:53;8.03;;;4.93;;
12814;SDS011;6472;52.328;13.070;2022-11-20T04:57:21;6.90;;;4.10;;
12814;SDS011;6472;52.328;13.070;2022-11-20T04:59:49;7.80;;;4.97;;
12814;SDS011;6472;52.328;13.070;2022-11-20T05:02:18;7.07;;;4.97;;
12814;SDS011;6472;52.328;13.070;2022-11-20T05:04:46;10.57;;;5.23;;
12814;SDS011;6472;52.328;13.070;2022-11-20T05:07:14;10.13;;;5.10;;
12814;SDS011;6472;52.328;13.070;2022-11-20T05:09:42;8.70;;;4.63;;
12814;SDS011;6472;52.328;13.070;2022-11-20T05:12:16;8.87;;;4.90;;
12814;SDS011;6472;52.328;13.070;2022-11-20T05:14:44;6.27;;;3.90;;
12814;SDS011;6472;52.328;13.070;2022-11-20T05:17:12;7.80;;;5.17;;
12814;SDS011;6472;52.328;13.070;2022-11-20T05:19:41;9.87;;;4.30;;
12814;SDS011;6472;52.328;13.070;2022-11-20T05:22:09;17.03;;;5.23;;
12814;SDS011;6472;52.328;13.070;2022-11-20T05:24:37;9.70;;;4.70;;
12814;SDS011;6472;52.328;13.070;2022-11-20T05:27:05;8.43;;;4.57;;
12814;SDS011;6472;52.328;13.070;2022-11-20T05:29:35;7.83;;;5.07;;
12814;SDS011;6472;52.328;13.070;2022-11-20T05:32:03;10.17;;;6.03;;
12814;SDS011;6472;52.328;13.070;2022-11-20T05:34:35;9.83;;;5.63;;
12814;SDS011;6472;52.328;13.070;2022-11-20T05:37:03;6.77;;;4.50;;
12814;SDS011;6472;52.328;13.070;2022-11-20T05:39:31;5.43;;;3.67;;
12814;SDS011;6472;52.328;13.070;2022-11-20T05:42:00;8.23;;;4.73;;
12814;SDS011;6472;52.328;13.070;2022-11-20T05:44:48;11.27;;;6.00;;
12814;SDS011;6472;52.328;13.070;2022-11-20T05:47:18;8.10;;;5.57;;
12814;SDS011;6472;52.328;13.070;2022-11-20T05:49:46;10.00;;;5.07;;
12814;SDS011;6472;52.328;13.070;2022-11-20T05:52:14;7.73;;;4.30;;
12814;SDS011;6472;52.328;13.070;2022-11-20T05:54:42;9.07;;;3.67;;
12814;SDS011;6472;52.328;13.070;2022-11-20T05:57:10;7.37;;;5.07;;
12814;SDS011;6472;52.328;13.070;2022-11-20T05:59:38;7.27;;;4.37;;
12814;SDS011;6472;52.328;13.070;2022-11-20T06:02:08;9.13;;;4.10;;
12814;SDS011;6472;52.328;13.070;2022-11-20T06:04:36;10.03;;;4.57;;
12814;SDS011;6472;52.328;13.070;2022-11-20T06:07:07;9.37;;;4.87;;
12814;SDS011;6472;52.328;13.070;2022-11-20T06:09:35;10.53;;;5.13;;
12814;SDS011;6472;52.328;13.070;2022-11-20T06:12:03;8.13;;;5.40;;
12814;SDS011;6472;52.328;13.070;2022-11-20T06:14:33;11.03;;;5.70;;
12814;SDS011;6472;52.328;13.070;2022-11-20T06:17:01;8.60;;;4.60;;
12814;SDS011;6472;52.328;13.070;2022-11-20T06:19:35;8.33;;;4.53;;
12814;SDS011;6472;52.328;13.070;2022-11-20T06:22:03;11.00;;;4.77;;
12814;SDS011;6472;52.328;13.070;2022-11-20T06:24:31;8.93;;;5.27;;
12814;SDS011;6472;52.328;13.070;2022-11-20T06:27:00;8.13;;;4.93;;
12814;SDS011;6472;52.328;13.070;2022-11-20T06:29:28;8.57;;;5.57;;
12814;SDS011;6472;52.328;13.070;2022-11-20T06:31:59;6.90;;;3.70;;
12814;SDS011;6472;52.328;13.070;2022-11-20T06:34:27;13.23;;;5.50;;
12814;SDS011;6472;52.328;13.070;2022-11-20T06:36:58;9.73;;;5.10;;
12814;SDS011;6472;52.328;13.070;2022-11-20T06:39:26;7.70;;;4.80;;
12814;SDS011;6472;52.328;13.070;2022-11-20T06:41:54;12.33;;;5.93;;
12814;SDS011;6472;52.328;13.070;2022-11-20T06:44:42;10.43;;;4.90;;
12814;SDS011;6472;52.328;13.070;2022-11-20T06:47:10;10.67;;;6.23;;
12814;SDS011;6472;52.328;13.070;2022-11-20T06:49:38;11.20;;;5.07;;
12814;SDS011;6472;52.328;13.070;2022-11-20T06:52:09;7.47;;;5.17;;
12814;SDS011;6472;52.328;13.070;2022-11-20T06:54:41;9.30;;;5.37;;
12814;SDS011;6472;52.328;13.070;2022-11-20T06:57:20;14.43;;;5.10;;
12814;SDS011;6472;52.328;13.070;2022-11-20T06:59:48;9.80;;;4.47;;
12814;SDS011;6472;52.328;13.070;2022-11-20T07:02:18;7.57;;;5.03;;
12814;SDS011;6472;52.328;13.070;2022-11-20T07:04:47;8.17;;;5.37;;
12814;SDS011;6472;52.328;13.070;2022-11-20T07:07:16;14.30;;;5.67;;
12814;SDS011;6472;52.328;13.070;2022-11-20T07:09:53;11.27;;;5.40;;
12814;SDS011;6472;52.328;13.070;2022-11-20T07:12:21;7.43;;;5.57;;
12814;SDS011;6472;52.328;13.070;2022-11-20T07:14:49;11.00;;;5.77;;
12814;SDS011;6472;52.328;13.070;2022-11-20T07:17:21;8.63;;;5.43;;
12814;SDS011;6472;52.328;13.070;2022-11-20T07:19:49;11.80;;;6.57;;
12814;SDS011;6472;52.328;13.070;2022-11-20T07:22:18;5.47;;;4.03;;
12814;SDS011;6472;52.328;13.070;2022-11-20T07:24:48;10.50;;;5.53;;
12814;SDS011;6472;52.328;13.070;2022-11-20T07:27:16;9.90;;;4.57;;
12814;SDS011;6472;52.328;13.070;2022-11-20T07:29:44;8.83;;;5.70;;
12814;SDS011;6472;52.328;13.070;2022-11-20T07:32:12;15.33;;;5.97;;
12814;SDS011;6472;52.328;13.070;2022-11-20T07:34:46;8.37;;;5.13;;
12814;SDS011;6472;52.328;13.070;2022-11-20T07:37:24;17.20;;;7.63;;
12814;SDS011;6472;52.328;13.070;2022-11-20T07:39:52;16.60;;;8.33;;
12814;SDS011;6472;52.328;13.070;2022-11-20T07:42:26;22.10;;;8.67;;
12814;SDS011;6472;52.328;13.070;2022-11-20T07:44:57;18.80;;;7.80;;
12814;SDS011;6472;52.328;13.070;2022-11-20T07:47:34;15.93;;;7.27;;
12814;SDS011;6472;52.328;13.070;2022-11-20T07:50:22;25.37;;;10.27;;
12814;SDS011;6472;52.328;13.070;2022-11-20T07:53:19;11.37;;;6.13;;
12814;SDS011;6472;52.328;13.070;2022-11-20T07:55:48;9.07;;;5.80;;
12814;SDS011;6472;52.328;13.070;2022-11-20T07:58:24;12.67;;;7.70;;
12814;SDS011;6472;52.328;13.070;2022-11-20T08:00:53;14.53;;;8.07;;
12814;SDS011;6472;52.328;13.070;2022-11-20T08:03:38;14.73;;;7.40;;
12814;SDS011;6472;52.328;13.070;2022-11-20T08:06:11;8.60;;;5.80;;
12814;SDS011;6472;52.328;13.070;2022-11-20T08:08:41;11.20;;;6.80;;
12814;SDS011;6472;52.328;13.070;2022-11-20T08:11:10;13.07;;;6.80;;
12814;SDS011;6472;52.328;13.070;2022-11-20T08:14:11;15.17;;;6.47;;
12814;SDS011;6472;52.328;13.070;2022-11-20T08:16:39;9.93;;;4.83;;
12814;SDS011;6472;52.328;13.070;2022-11-20T08:19:10;9.77;;;6.40;;
12814;SDS011;6472;52.328;13.070;2022-11-20T08:21:41;15.43;;;8.07;;
12814;SDS011;6472;52.328;13.070;2022-11-20T08:24:13;14.40;;;6.90;;
12814;SDS011;6472;52.328;13.070;2022-11-20T08:26:41;12.00;;;6.87;;
12814;SDS011;6472;52.328;13.070;2022-11-20T08:29:10;10.33;;;5.97;;
12814;SDS011;6472;52.328;13.070;2022-11-20T08:31:50;11.50;;;5.33;;
12814;SDS011;6472;52.328;13.070;2022-11-20T08:34:18;11.80;;;6.07;;
12814;SDS011;6472;52.328;13.070;2022-11-20T08:37:03;12.93;;;6.37;;
12814;SDS011;6472;52.328;13.070;2022-11-20T08:39:33;12.37;;;6.37;;
12814;SDS011;6472;52.328;13.070;2022-11-20T08:42:11;14.60;;;8.03;;
12814;SDS011;6472;52.328;13.070;2022-11-20T08:44:56;9.73;;;6.03;;
12814;SDS011;6472;52.328;13.070;2022-11-20T08:47:37;7.03;;;5.40;;
12814;SDS011;6472;52.328;13.070;2022-11-20T08:50:06;14.43;;;6.50;;
12814;SDS011;6472;52.328;13.070;2022-11-20T08:52:45;12.13;;;5.67;;
12814;SDS011;6472;52.328;13.070;2022-11-20T08:55:21;7.90;;;5.03;;
12814;SDS011;6472;52.328;13.070;2022-11-20T08:59:14;11.83;;;5.83;;
12814;SDS011;6472;52.328;13.070;2022-11-20T09:01:48;9.13;;;6.33;;
12814;SDS011;6472;52.328;13.070;2022-11-20T09:04:30;8.73;;;5.40;;
12814;SDS011;6472;52.328;13.070;2022-11-20T09:07:13;8.50;;;5.13;;
12814;SDS011;6472;52.328;13.070;2022-11-20T09:09:44;13.40;;;5.87;;
12814;SDS011;6472;52.328;13.070;2022-11-20T09:12:35;9.60;;;5.53;;
12814;SDS011;6472;52.328;13.070;2022-11-20T09:15:11;10.23;;;5.30;;
12814;SDS011;6472;52.328;13.070;2022-11-20T09:17:50;11.37;;;6.40;;
12814;SDS011;6472;52.328;13.070;2022-11-20T09:20:25;10.67;;;5.47;;
12814;SDS011;6472;52.328;13.070;2022-11-20T09:23:16;12.57;;;7.07;;
12814;SDS011;6472;52.328;13.070;2022-11-20T09:25:50;12.17;;;6.23;;
12814;SDS011;6472;52.328;13.070;2022-11-20T09:28:24;12.53;;;6.67;;
12814;SDS011;6472;52.328;13.070;2022-11-20T09:30:54;11.27;;;6.30;;
12814;SDS011;6472;52.328;13.070;2022-11-20T09:33:55;13.13;;;8.13;;
12814;SDS011;6472;52.328;13.070;2022-11-20T09:36:23;9.20;;;6.20;;
12814;SDS011;6472;52.328;13.070;2022-11-20T09:39:15;11.83;;;7.33;;
12814;SDS011;6472;52.328;13.070;2022-11-20T09:42:32;14.30;;;6.63;;
12814;SDS011;6472;52.328;13.070;2022-11-20T09:45:15;14.83;;;6.73;;
12814;SDS011;6472;52.328;13.070;2022-11-20T09:50:43;10.50;;;6.30;;
12814;SDS011;6472;52.328;13.070;2022-11-20T09:53:16;9.67;;;6.20;;
12814;SDS011;6472;52.328;13.070;2022-11-20T09:55:51;14.07;;;6.03;;
12814;SDS011;6472;52.328;13.070;2022-11-20T09:58:22;11.80;;;6.60;;
12814;SDS011;6472;52.328;13.070;2022-11-20T10:01:00;11.23;;;5.93;;
12814;SDS011;6472;52.328;13.070;2022-11-20T10:03:38;13.23;;;7.23;;
12814;SDS011;6472;52.328;13.070;2022-11-20T10:06:13;6.77;;;5.27;;
12814;SDS011;6472;52.328;13.070;2022-11-20T10:08:45;15.00;;;6.83;;
12814;SDS011;6472;52.328;13.070;2022-11-20T10:11:24;12.10;;;5.77;;
12814;SDS011;6472;52.328;13.070;2022-11-20T10:14:02;13.80;;;6.30;;
12814;SDS011;6472;52.328;13.070;2022-11-20T10:16:44;12.67;;;6.77;;
12814;SDS011;6472;52.328;13.070;2022-11-20T10:19:24;9.73;;;6.07;;
12814;SDS011;6472;52.328;13.070;2022-11-20T10:22:21;8.10;;;5.23;;
12814;SDS011;6472;52.328;13.070;2022-11-20T10:25:03;9.27;;;5.10;;
12814;SDS011;6472;52.328;13.070;2022-11-20T10:27:51;8.57;;;4.83;;
12814;SDS011;6472;52.328;13.070;2022-11-20T10:30:29;10.87;;;5.77;;
12814;SDS011;6472;52.328;13.070;2022-11-20T10:33:05;7.67;;;5.43;;
12814;SDS011;6472;52.328;13.070;2022-11-20T10:35:41;12.53;;;4.93;;
12814;SDS011;6472;52.328;13.070;2022-11-20T10:38:13;9.60;;;5.10;;
12814;SDS011;6472;52.328;13.070;2022-11-20T10:40:45;9.63;;;5.27;;
12814;SDS011;6472;52.328;13.070;2022-11-20T10:43:16;8.23;;;4.43;;
12814;SDS011;6472;52.328;13.070;2022-11-20T10:45:49;10.17;;;5.97;;
12814;SDS011;6472;52.328;13.070;2022-11-20T10:48:25;9.33;;;5.63;;
12814;SDS011;6472;52.328;13.070;2022-11-20T10:51:07;9.57;;;5.27;;
12814;SDS011;6472;52.328;13.070;2022-11-20T10:53:45;9.23;;;5.30;;
12814;SDS011;6472;52.328;13.070;2022-11-20T10:56:33;5.13;;;4.07;;
12814;SDS011;6472;52.328;13.070;2022-11-20T11:02:19;9.20;;;4.90;;
12814;SDS011;6472;52.328;13.070;2022-11-20T11:04:50;7.13;;;5.13;;
12814;SDS011;6472;52.328;13.070;2022-11-20T11:07:20;11.33;;;5.27;;
12814;SDS011;6472;52.328;13.070;2022-11-20T11:09:53;11.17;;;4.37;;
12814;SDS011;6472;52.328;13.070;2022-11-20T11:12:22;9.97;;;5.47;;
12814;SDS011;6472;52.328;13.070;2022-11-20T11:14:53;13.73;;;5.30;;
12814;SDS011;6472;52.328;13.070;2022-11-20T11:17:23;8.63;;;4.43;;
12814;SDS011;6472;52.328;13.070;2022-11-20T11:20:02;7.60;;;4.00;;
12814;SDS011;6472;52.328;13.070;2022-11-20T11:22:32;8.87;;;5.03;;
12814;SDS011;6472;52.328;13.070;2022-11-20T11:25:01;5.90;;;4.43;;
12814;SDS011;6472;52.328;13.070;2022-11-20T11:27:30;11.70;;;5.63;;
12814;SDS011;6472;52.328;13.070;2022-11-20T11:30:02;7.03;;;3.97;;
12814;SDS011;6472;52.328;13.070;2022-11-20T11:32:40;5.63;;;3.87;;
12814;SDS011;6472;52.328;13.070;2022-11-20T11:35:19;7.33;;;4.43;;
12814;SDS011;6472;52.328;13.070;2022-11-20T11:37:49;7.03;;;4.33;;
12814;SDS011;6472;52.328;13.070;2022-11-20T11:40:20;5.27;;;3.80;;
12814;SDS011;6472;52.328;13.070;2022-11-20T11:42:52;5.30;;;3.33;;
12814;SDS011;6472;52.328;13.070;2022-11-20T11:45:24;8.23;;;4.07;;
12814;SDS011;6472;52.328;13.070;2022-11-20T11:47:52;5.03;;;4.17;;
12814;SDS011;6472;52.328;13.070;2022-11-20T11:50:24;5.23;;;3.20;;
12814;SDS011;6472;52.328;13.070;2022-11-20T11:52:55;5.63;;;3.47;;
12814;SDS011;6472;52.328;13.070;2022-11-20T11:55:29;3.40;;;3.10;;
12814;SDS011;6472;52.328;13.070;2022-11-20T11:58:04;2.93;;;2.20;;
12814;SDS011;6472;52.328;13.070;2022-11-20T12:00:47;5.20;;;2.63;;
12814;SDS011;6472;52.328;13.070;2022-11-20T12:03:21;4.30;;;2.77;;
12814;SDS011;6472;52.328;13.070;2022-11-20T12:05:56;2.47;;;2.30;;
12814;SDS011;6472;52.328;13.070;2022-11-20T12:08:27;5.80;;;2.70;;
12814;SDS011;6472;52.328;13.070;2022-11-20T12:11:00;8.63;;;3.00;;
12814;SDS011;6472;52.328;13.070;2022-11-20T12:13:39;4.37;;;2.77;;
12814;SDS011;6472;52.328;13.070;2022-11-20T12:16:12;7.43;;;3.77;;
12814;SDS011;6472;52.328;13.070;2022-11-20T12:18:41;6.93;;;3.23;;
12814;SDS011;6472;52.328;13.070;2022-11-20T12:21:16;2.77;;;2.53;;
12814;SDS011;6472;52.328;13.070;2022-11-20T12:23:50;2.60;;;2.30;;
12814;SDS011;6472;52.328;13.070;2022-11-20T12:26:29;4.60;;;3.60;;
12814;SDS011;6472;52.328;13.070;2022-11-20T12:29:08;5.13;;;2.80;;
12814;SDS011;6472;52.328;13.070;2022-11-20T12:31:46;3.03;;;2.77;;
12814;SDS011;6472;52.328;13.070;2022-11-20T12:34:39;6.77;;;3.40;;
12814;SDS011;6472;52.328;13.070;2022-11-20T12:37:29;4.33;;;2.70;;
12814;SDS011;6472;52.328;13.070;2022-11-20T12:40:07;5.47;;;2.57;;
12814;SDS011;6472;52.328;13.070;2022-11-20T12:42:53;5.23;;;2.67;;
12814;SDS011;6472;52.328;13.070;2022-11-20T12:45:50;7.00;;;3.37;;
12814;SDS011;6472;52.328;13.070;2022-11-20T12:48:38;7.23;;;3.60;;
12814;SDS011;6472;52.328;13.070;2022-11-20T12:51:18;5.17;;;3.43;;
12814;SDS011;6472;52.328;13.070;2022-11-20T12:54:08;4.57;;;3.43;;
12814;SDS011;6472;52.328;13.070;2022-11-20T12:56:57;4.63;;;3.50;;
12814;SDS011;6472;52.328;13.070;2022-11-20T12:59:33;2.83;;;2.60;;
12814;SDS011;6472;52.328;13.070;2022-11-20T13:02:18;4.53;;;3.10;;
12814;SDS011;6472;52.328;13.070;2022-11-20T13:04:58;5.37;;;2.63;;
12814;SDS011;6472;52.328;13.070;2022-11-20T13:07:34;6.73;;;4.43;;
12814;SDS011;6472;52.328;13.070;2022-11-20T13:10:04;6.00;;;4.10;;
12814;SDS011;6472;52.328;13.070;2022-11-20T13:12:43;5.07;;;2.97;;
12814;SDS011;6472;52.328;13.070;2022-11-20T13:15:15;7.80;;;4.33;;
12814;SDS011;6472;52.328;13.070;2022-11-20T13:17:51;4.33;;;3.10;;
12814;SDS011;6472;52.328;13.070;2022-11-20T13:20:24;8.90;;;4.13;;
12814;SDS011;6472;52.328;13.070;2022-11-20T13:22:53;7.50;;;3.97;;
12814;SDS011;6472;52.328;13.070;2022-11-20T13:25:25;8.23;;;3.57;;
12814;SDS011;6472;52.328;13.070;2022-11-20T13:27:54;3.70;;;3.03;;
12814;SDS011;6472;52.328;13.070;2022-11-20T13:30:23;4.57;;;3.03;;
12814;SDS011;6472;52.328;13.070;2022-11-20T13:32:52;4.53;;;3.43;;
12814;SDS011;6472;52.328;13.070;2022-11-20T13:35:26;6.53;;;3.23;;
12814;SDS011;6472;52.328;13.070;2022-11-20T13:37:59;6.13;;;2.60;;
12814;SDS011;6472;52.328;13.070;2022-11-20T13:40:30;3.13;;;2.50;;
12814;SDS011;6472;52.328;13.070;2022-11-20T13:43:04;5.13;;;2.87;;
12814;SDS011;6472;52.328;13.070;2022-11-20T13:45:42;6.53;;;3.77;;
12814;SDS011;6472;52.328;13.070;2022-11-20T13:48:21;9.00;;;4.00;;
12814;SDS011;6472;52.328;13.070;2022-11-20T13:50:57;6.80;;;3.87;;
12814;SDS011;6472;52.328;13.070;2022-11-20T13:53:45;6.37;;;3.77;;
12814;SDS011;6472;52.328;13.070;2022-11-20T13:56:47;5.83;;;3.23;;
12814;SDS011;6472;52.328;13.070;2022-11-20T13:59:36;7.77;;;4.87;;
12814;SDS011;6472;52.328;13.070;2022-11-20T14:02:15;6.60;;;3.23;;
12814;SDS011;6472;52.328;13.070;2022-11-20T14:04:45;11.00;;;4.40;;
12814;SDS011;6472;52.328;13.070;2022-11-20T14:07:15;6.33;;;4.17;;
12814;SDS011;6472;52.328;13.070;2022-11-20T14:09:51;9.63;;;5.53;;
12814;SDS011;6472;52.328;13.070;2022-11-20T14:12:22;8.37;;;5.57;;
12814;SDS011;6472;52.328;13.070;2022-11-20T14:14:54;11.00;;;4.97;;
12814;SDS011;6472;52.328;13.070;2022-11-20T14:17:23;7.17;;;4.73;;
12814;SDS011;6472;52.328;13.070;2022-11-20T14:19:57;7.57;;;4.17;;
12814;SDS011;6472;52.328;13.070;2022-11-20T14:22:28;7.90;;;3.77;;
12814;SDS011;6472;52.328;13.070;2022-11-20T14:25:03;6.03;;;4.10;;
12814;SDS011;6472;52.328;13.070;2022-11-20T14:27:35;5.30;;;3.80;;
12814;SDS011;6472;52.328;13.070;2022-11-20T14:30:05;6.70;;;4.30;;
12814;SDS011;6472;52.328;13.070;2022-11-20T14:32:39;4.97;;;3.53;;
12814;SDS011;6472;52.328;13.070;2022-11-20T14:35:10;7.43;;;4.33;;
12814;SDS011;6472;52.328;13.070;2022-11-20T14:37:45;4.83;;;3.77;;
12814;SDS011;6472;52.328;13.070;2022-11-20T14:40:23;7.30;;;4.70;;
12814;SDS011;6472;52.328;13.070;2022-11-20T14:42:56;11.77;;;6.23;;
12814;SDS011;6472;52.328;13.070;2022-11-20T14:45:25;12.67;;;5.97;;
12814;SDS011;6472;52.328;13.070;2022-11-20T14:47:55;8.50;;;4.63;;
12814;SDS011;6472;52.328;13.070;2022-11-20T14:50:25;7.03;;;4.73;;
12814;SDS011;6472;52.328;13.070;2022-11-20T14:52:55;5.87;;;4.47;;
12814;SDS011;6472;52.328;13.070;2022-11-20T14:55:25;6.60;;;4.17;;
12814;SDS011;6472;52.328;13.070;2022-11-20T14:57:55;6.07;;;3.80;;
12814;SDS011;6472;52.328;13.070;2022-11-20T15:00:25;8.33;;;4.57;;
12814;SDS011;6472;52.328;13.070;2022-11-20T15:02:53;7.30;;;5.53;;
12814;SDS011;6472;52.328;13.070;2022-11-20T15:05:23;7.10;;;4.10;;
12814;SDS011;6472;52.328;13.070;2022-11-20T15:08:03;6.73;;;3.87;;
12814;SDS011;6472;52.328;13.070;2022-11-20T15:10:33;8.40;;;4.57;;
12814;SDS011;6472;52.328;13.070;2022-11-20T15:13:05;6.67;;;3.63;;
12814;SDS011;6472;52.328;13.070;2022-11-20T15:15:40;15.23;;;5.00;;
12814;SDS011;6472;52.328;13.070;2022-11-20T15:18:12;6.90;;;3.93;;
12814;SDS011;6472;52.328;13.070;2022-11-20T15:20:42;10.60;;;4.73;;
12814;SDS011;6472;52.328;13.070;2022-11-20T15:23:11;6.30;;;4.30;;
12814;SDS011;6472;52.328;13.070;2022-11-20T15:25:40;6.60;;;4.80;;
12814;SDS011;6472;52.328;13.070;2022-11-20T15:28:13;7.97;;;4.60;;
12814;SDS011;6472;52.328;13.070;2022-11-20T15:30:46;8.70;;;4.77;;
12814;SDS011;6472;52.328;13.070;2022-11-20T15:33:15;12.23;;;6.03;;
12814;SDS011;6472;52.328;13.070;2022-11-20T15:35:44;10.70;;;4.93;;
12814;SDS011;6472;52.328;13.070;2022-11-20T15:38:12;7.50;;;4.03;;
12814;SDS011;6472;52.328;13.070;2022-11-20T15:40:40;8.53;;;6.43;;
12814;SDS011;6472;52.328;13.070;2022-11-20T15:43:08;10.00;;;5.13;;
12814;SDS011;6472;52.328;13.070;2022-11-20T15:45:41;10.43;;;6.37;;
12814;SDS011;6472;52.328;13.070;2022-11-20T15:48:13;15.87;;;7.13;;
12814;SDS011;6472;52.328;13.070;2022-11-20T15:50:46;16.57;;;7.47;;